Time;durP1;ratioP1;P1;durP2;ratioP2;P2;SDS_P1;SDS_P2;PMS_P1;PMS_P2;Temp;Humidity;BMP_temperature;BMP_pressure;BME280_temperature;BME280_humidity;BME280_pressure;Samples;Min_cycle;Max_cycle;Signal;HPM_P1;HPM_P2
2021/04/22 00:00:50;;;;;;;15.10;3.58;;;10.50;78.70;;;;;;1832320;77;21022;-68
2021/04/22 00:03:17;;;;;;;18.98;4.00;;;10.60;78.90;;;;;;1834040;77;21089;-68
2021/04/22 00:05:45;;;;;;;17.30;4.50;;;10.60;79.00;;;;;;1834306;77;21175;-70
2021/04/22 00:08:14;;;;;;;21.12;4.20;;;10.60;79.50;;;;;;1832841;77;21162;-69
2021/04/22 00:10:48;;;;;;;18.48;3.55;;;10.60;79.00;;;;;;1832681;77;21084;-69
2021/04/22 00:13:18;;;;;;;20.35;3.98;;;10.60;79.10;;;;;;1830316;77;21104;-69
2021/04/22 00:15:46;;;;;;;13.70;3.72;;;10.60;79.00;;;;;;1831255;77;21105;-69
2021/04/22 00:18:14;;;;;;;16.70;3.72;;;10.50;79.50;;;;;;1830662;77;21120;-69
2021/04/22 00:20:42;;;;;;;18.10;4.58;;;10.50;79.70;;;;;;1831234;77;21653;-69
2021/04/22 00:23:12;;;;;;;15.63;3.70;;;10.50;79.90;;;;;;1831941;77;21162;-69
2021/04/22 00:25:44;;;;;;;17.48;3.47;;;10.50;79.70;;;;;;1833740;77;21081;-69
2021/04/22 00:28:12;;;;;;;19.92;4.22;;;10.50;79.80;;;;;;1827645;77;21186;-70
2021/04/22 00:30:40;;;;;;;20.20;4.00;;;10.60;79.80;;;;;;1832818;77;21163;-70
2021/04/22 00:33:10;;;;;;;15.60;3.50;;;10.60;79.70;;;;;;1832940;76;21171;-69
2021/04/22 00:35:37;;;;;;;17.23;3.35;;;10.60;79.40;;;;;;1832114;76;21226;-70
2021/04/22 00:38:06;;;;;;;19.67;3.75;;;10.60;80.70;;;;;;1833220;77;21136;-70
2021/04/22 00:40:34;;;;;;;15.98;3.55;;;10.70;81.10;;;;;;1834752;76;21108;-71
2021/04/22 00:43:07;;;;;;;21.15;3.87;;;10.60;80.50;;;;;;1832311;77;21108;-68
2021/04/22 00:45:37;;;;;;;17.32;3.72;;;10.70;80.70;;;;;;1833836;77;21030;-70
2021/04/22 00:48:06;;;;;;;14.35;3.65;;;10.70;81.10;;;;;;1834555;77;21029;-69
2021/04/22 00:50:36;;;;;;;23.40;3.77;;;10.70;81.70;;;;;;1834215;76;21002;-69
2021/04/22 00:53:05;;;;;;;18.17;4.25;;;10.70;81.30;;;;;;1834176;77;21033;-69
2021/04/22 00:55:33;;;;;;;17.42;3.52;;;10.70;81.60;;;;;;1833523;77;21085;-69
2021/04/22 00:58:02;;;;;;;16.42;4.15;;;10.70;81.70;;;;;;1833702;77;21159;-69
2021/04/22 01:00:33;;;;;;;16.15;3.83;;;10.70;81.70;;;;;;1837016;77;21520;-70
2021/04/22 01:03:00;;;;;;;15.05;3.87;;;10.70;81.90;;;;;;1832633;77;21073;-70
2021/04/22 01:05:31;;;;;;;14.03;4.60;;;10.80;81.80;;;;;;1832006;77;21155;-70
2021/04/22 01:07:59;;;;;;;15.83;4.35;;;10.70;81.50;;;;;;1831995;77;21045;-69
2021/04/22 01:10:27;;;;;;;19.32;4.25;;;10.70;81.60;;;;;;1830740;77;21007;-70
2021/04/22 01:12:55;;;;;;;17.95;4.28;;;10.70;81.50;;;;;;1833363;77;21214;-70
2021/04/22 01:15:25;;;;;;;22.85;4.03;;;10.70;81.30;;;;;;1834871;77;21128;-69
2021/04/22 01:17:53;;;;;;;18.98;4.08;;;10.70;81.20;;;;;;1830740;77;21175;-70
2021/04/22 01:20:29;;;;;;;22.37;3.87;;;10.80;81.30;;;;;;1833340;77;21077;-70
2021/04/22 01:22:59;;;;;;;24.45;4.40;;;10.80;81.10;;;;;;1845906;73;21113;-68
2021/04/22 01:25:32;;;;;;;18.20;4.15;;;10.80;81.50;;;;;;1899540;74;21159;-68
2021/04/22 01:28:01;;;;;;;14.13;3.60;;;10.80;81.20;;;;;;1902455;74;21767;-67
2021/04/22 01:30:34;;;;;;;20.37;4.53;;;10.80;81.10;;;;;;1898219;74;21276;-67
2021/04/22 01:33:02;;;;;;;17.00;4.30;;;10.70;81.00;;;;;;1895993;74;21160;-67
2021/04/22 01:35:33;;;;;;;20.72;4.90;;;10.70;81.10;;;;;;1877787;75;22169;-67
2021/04/22 01:38:03;;;;;;;18.10;4.10;;;10.80;80.90;;;;;;1874622;76;21100;-66
2021/04/22 01:40:31;;;;;;;14.18;3.90;;;10.70;80.90;;;;;;1876254;75;21109;-67
2021/04/22 01:42:59;;;;;;;21.40;4.70;;;10.70;81.00;;;;;;1877931;74;21668;-67
2021/04/22 01:45:27;;;;;;;23.65;4.42;;;10.70;80.90;;;;;;1880982;75;21497;-67
2021/04/22 01:47:55;;;;;;;21.07;4.97;;;10.70;81.00;;;;;;1876422;76;21496;-67
2021/04/22 01:50:28;;;;;;;19.73;4.25;;;10.70;81.00;;;;;;1883457;76;21029;-67
2021/04/22 01:52:56;;;;;;;15.58;3.67;;;10.80;81.00;;;;;;1878943;74;21174;-68
2021/04/22 01:55:26;;;;;;;24.45;4.53;;;10.70;80.90;;;;;;1884364;75;21010;-67
2021/04/22 01:57:54;;;;;;;14.10;3.70;;;10.60;81.40;;;;;;1883030;75;21527;-68
2021/04/22 02:00:27;;;;;;;19.02;4.05;;;10.60;81.40;;;;;;1881336;75;21581;-69
2021/04/22 02:02:55;;;;;;;20.97;4.00;;;10.60;81.90;;;;;;1881767;74;21128;-68
2021/04/22 02:05:23;;;;;;;17.45;4.17;;;10.60;81.80;;;;;;1882709;76;21174;-67
2021/04/22 02:07:51;;;;;;;18.73;4.55;;;10.60;81.60;;;;;;1875207;75;21104;-68
2021/04/22 02:10:20;;;;;;;22.30;4.50;;;10.60;81.60;;;;;;1871568;75;21165;-67
2021/04/22 02:12:48;;;;;;;21.90;4.50;;;10.60;81.50;;;;;;1880407;74;21148;-69
2021/04/22 02:15:21;;;;;;;20.80;4.20;;;10.60;81.40;;;;;;1881755;76;21476;-69
2021/04/22 02:17:48;;;;;;;18.62;4.00;;;10.60;81.50;;;;;;1880089;76;21100;-69
2021/04/22 02:20:17;;;;;;;23.92;5.05;;;10.50;81.90;;;;;;1880993;76;21100;-67
2021/04/22 02:22:46;;;;;;;19.40;4.17;;;10.60;81.70;;;;;;1883054;74;21138;-67
2021/04/22 02:25:17;;;;;;;20.12;4.40;;;10.60;81.00;;;;;;1882667;76;21062;-67
2021/04/22 02:27:45;;;;;;;22.32;4.78;;;10.70;81.30;;;;;;1878763;76;21112;-67
2021/04/22 02:30:22;;;;;;;23.00;4.62;;;10.60;81.00;;;;;;1876035;76;21108;-67
2021/04/22 02:32:50;;;;;;;19.48;4.00;;;10.50;81.10;;;;;;1878812;74;21583;-66
2021/04/22 02:35:20;;;;;;;21.68;4.28;;;10.50;80.90;;;;;;1877184;76;21045;-67
2021/04/22 02:37:48;;;;;;;22.25;4.50;;;10.50;80.90;;;;;;1881423;76;21171;-67
2021/04/22 02:40:19;;;;;;;16.30;4.22;;;10.50;80.70;;;;;;1881205;76;21508;-67
2021/04/22 02:42:46;;;;;;;12.53;3.22;;;10.50;80.90;;;;;;1882111;74;21356;-67
2021/04/22 02:45:17;;;;;;;16.97;4.78;;;10.50;80.30;;;;;;1880579;76;21010;-67
2021/04/22 02:47:45;;;;;;;22.85;4.55;;;10.50;80.80;;;;;;1878516;76;21194;-67
2021/04/22 02:50:15;;;;;;;26.62;5.05;;;10.50;79.90;;;;;;1877592;76;21045;-67
2021/04/22 02:52:43;;;;;;;25.80;4.45;;;10.60;79.90;;;;;;1879408;74;21130;-67
2021/04/22 02:55:11;;;;;;;19.12;3.83;;;10.60;79.80;;;;;;1881055;76;21010;-68
2021/04/22 02:57:39;;;;;;;19.50;3.87;;;10.60;80.10;;;;;;1883719;76;21120;-68
2021/04/22 03:00:10;;;;;;;20.68;4.62;;;10.60;80.20;;;;;;1876801;75;21543;-68
2021/04/22 03:02:37;;;;;;;16.62;4.10;;;10.60;79.90;;;;;;1882916;74;21614;-68
2021/04/22 03:05:06;;;;;;;16.60;4.78;;;10.60;79.60;;;;;;1878288;75;21101;-68
2021/04/22 03:07:34;;;;;;;17.57;4.58;;;10.70;79.70;;;;;;1874858;76;21228;-68
2021/04/22 03:10:02;;;;;;;18.90;4.03;;;10.60;79.70;;;;;;1882386;75;21412;-67
2021/04/22 03:12:29;;;;;;;17.57;3.77;;;10.60;79.40;;;;;;1876656;76;21083;-67
2021/04/22 03:14:57;;;;;;;17.10;4.58;;;10.60;79.50;;;;;;1868027;76;21096;-67
2021/04/22 03:17:24;;;;;;;20.80;4.03;;;10.60;79.40;;;;;;1879840;75;21121;-67
2021/04/22 03:19:52;;;;;;;15.83;3.92;;;10.60;79.00;;;;;;1883584;75;22172;-67
2021/04/22 03:22:19;;;;;;;23.27;5.20;;;10.60;78.80;;;;;;1882951;76;21104;-67
2021/04/22 03:24:47;;;;;;;19.42;3.58;;;10.60;78.80;;;;;;1883389;76;21186;-68
2021/04/22 03:27:14;;;;;;;18.42;3.95;;;10.60;79.00;;;;;;1877617;76;21624;-68
2021/04/22 03:29:42;;;;;;;16.55;3.72;;;10.60;78.70;;;;;;1870692;75;21194;-68
2021/04/22 03:32:10;;;;;;;21.05;3.95;;;10.60;79.00;;;;;;1875479;76;21812;-69
2021/04/22 03:34:37;;;;;;;23.98;4.40;;;10.60;79.00;;;;;;1876159;76;21137;-69
2021/04/22 03:37:05;;;;;;;17.95;4.50;;;10.60;79.50;;;;;;1881208;76;21132;-69
2021/04/22 03:39:32;;;;;;;20.02;4.50;;;10.60;81.00;;;;;;1868324;76;21089;-69
2021/04/22 03:42:00;;;;;;;16.55;4.00;;;10.60;82.70;;;;;;1880212;76;21159;-69
2021/04/22 03:44:27;;;;;;;24.07;4.62;;;10.50;83.80;;;;;;1877371;75;21222;-69
2021/04/22 03:46:55;;;;;;;16.35;3.87;;;10.50;84.20;;;;;;1883330;75;21085;-69
2021/04/22 03:49:23;;;;;;;16.07;3.85;;;10.50;84.40;;;;;;1877169;76;21545;-67
2021/04/22 03:51:50;;;;;;;19.92;4.30;;;10.50;84.60;;;;;;1884389;75;21507;-69
2021/04/22 03:54:18;;;;;;;19.42;4.55;;;10.40;84.80;;;;;;1883370;74;21218;-69
2021/04/22 03:56:45;;;;;;;18.62;4.17;;;10.40;84.90;;;;;;1882495;76;21213;-69
2021/04/22 03:59:13;;;;;;;17.95;4.58;;;10.40;83.60;;;;;;1883127;76;21202;-68
2021/04/22 04:01:41;;;;;;;22.42;4.00;;;10.40;84.10;;;;;;1882119;75;21152;-69
2021/04/22 04:04:08;;;;;;;22.10;4.62;;;10.40;83.80;;;;;;1879879;74;21168;-69
2021/04/22 04:06:36;;;;;;;17.73;3.90;;;10.40;83.70;;;;;;1878562;76;21707;-69
2021/04/22 04:09:04;;;;;;;18.67;3.92;;;10.30;82.70;;;;;;1882619;76;21120;-67
2021/04/22 04:11:31;;;;;;;21.12;4.47;;;10.30;83.50;;;;;;1882200;76;21147;-68
2021/04/22 04:13:59;;;;;;;22.58;4.33;;;10.40;83.40;;;;;;1881812;74;21183;-68
2021/04/22 04:16:26;;;;;;;20.17;4.08;;;10.40;84.60;;;;;;1881475;75;21117;-70
2021/04/22 04:18:54;;;;;;;16.17;3.52;;;10.40;85.40;;;;;;1878986;76;21096;-67
2021/04/22 04:21:21;;;;;;;18.07;4.40;;;10.40;86.90;;;;;;1878050;76;22496;-67
2021/04/22 04:23:49;;;;;;;21.77;4.00;;;10.30;88.80;;;;;;1881236;76;21206;-67
2021/04/22 04:26:17;;;;;;;17.82;4.12;;;10.30;89.20;;;;;;1878631;76;21194;-67
2021/04/22 04:28:44;;;;;;;22.77;5.10;;;10.20;89.80;;;;;;1882611;76;21696;-67
2021/04/22 04:31:12;;;;;;;13.03;3.62;;;10.20;90.20;;;;;;1876456;76;21582;-67
2021/04/22 04:33:39;;;;;;;16.93;4.17;;;10.10;90.40;;;;;;1882196;76;21268;-68
2021/04/22 04:36:07;;;;;;;20.60;4.42;;;10.10;90.50;;;;;;1872766;76;21156;-67
2021/04/22 04:38:35;;;;;;;17.23;4.22;;;10.20;90.70;;;;;;1876021;76;21147;-67
2021/04/22 04:41:02;;;;;;;28.05;5.03;;;10.20;90.50;;;;;;1874823;76;21025;-68
2021/04/22 04:43:30;;;;;;;22.42;4.45;;;10.10;90.50;;;;;;1873322;75;21077;-68
2021/04/22 04:45:57;;;;;;;21.40;4.15;;;10.10;90.30;;;;;;1876983;76;21182;-70
2021/04/22 04:48:25;;;;;;;21.80;4.28;;;10.10;90.30;;;;;;1875706;76;21100;-68
2021/04/22 04:50:52;;;;;;;22.50;4.80;;;10.20;90.70;;;;;;1871550;76;21775;-68
2021/04/22 04:53:20;;;;;;;16.57;4.92;;;10.20;90.80;;;;;;1873746;75;21147;-68
2021/04/22 04:55:47;;;;;;;27.50;5.47;;;10.20;90.70;;;;;;1880392;76;21197;-69
2021/04/22 04:58:15;;;;;;;19.37;5.72;;;10.10;90.40;;;;;;1872636;76;21633;-68
2021/04/22 05:00:43;;;;;;;18.07;4.40;;;10.20;90.50;;;;;;1872539;76;21617;-69
2021/04/22 05:03:11;;;;;;;27.98;4.60;;;10.20;89.90;;;;;;1872477;74;21087;-68
2021/04/22 05:05:38;;;;;;;18.50;4.03;;;10.20;89.70;;;;;;1875587;75;21229;-68
2021/04/22 05:08:06;;;;;;;16.67;4.08;;;10.20;89.60;;;;;;1870680;76;21585;-68
2021/04/22 05:10:33;;;;;;;22.98;3.85;;;10.20;89.30;;;;;;1874725;75;21516;-68
2021/04/22 05:13:01;;;;;;;17.98;4.22;;;10.20;89.50;;;;;;1868452;75;21152;-68
2021/04/22 05:15:28;;;;;;;18.80;3.80;;;10.30;89.40;;;;;;1875989;76;21606;-68
2021/04/22 05:17:56;;;;;;;15.13;3.87;;;10.30;88.10;;;;;;1870759;76;21069;-68
2021/04/22 05:20:23;;;;;;;23.15;4.53;;;10.40;87.50;;;;;;1877173;75;21104;-68
2021/04/22 05:22:51;;;;;;;20.27;4.20;;;10.40;87.20;;;;;;1866652;75;21212;-68
2021/04/22 05:25:18;;;;;;;15.50;4.10;;;10.40;87.70;;;;;;1876174;75;21680;-68
2021/04/22 05:27:46;;;;;;;19.35;4.20;;;10.50;87.50;;;;;;1875160;75;21041;-68
2021/04/22 05:30:14;;;;;;;25.48;4.62;;;10.50;88.30;;;;;;1877914;76;21112;-68
2021/04/22 05:32:41;;;;;;;17.73;3.95;;;10.30;87.70;;;;;;1878988;75;21249;-68
2021/04/22 05:35:10;;;;;;;20.12;3.95;;;10.40;87.90;;;;;;1869846;75;21163;-68
2021/04/22 05:37:38;;;;;;;18.60;3.75;;;10.40;88.10;;;;;;1873455;75;21100;-69
2021/04/22 05:40:06;;;;;;;15.60;4.40;;;10.40;87.40;;;;;;1878291;75;21614;-70
2021/04/22 05:42:34;;;;;;;25.15;4.03;;;10.50;87.20;;;;;;1871684;75;21092;-69
2021/04/22 05:45:05;;;;;;;15.32;3.92;;;10.50;87.60;;;;;;1872573;76;21550;-71
2021/04/22 05:47:33;;;;;;;20.45;4.95;;;10.50;87.60;;;;;;1873314;76;21150;-68
2021/04/22 05:50:00;;;;;;;23.05;4.92;;;10.50;87.10;;;;;;1865358;76;21594;-68
2021/04/22 05:52:28;;;;;;;20.77;4.85;;;10.50;87.10;;;;;;1867126;75;21093;-68
2021/04/22 05:54:55;;;;;;;22.82;5.00;;;10.50;87.00;;;;;;1875643;75;21496;-69
2021/04/22 05:57:23;;;;;;;18.27;4.78;;;10.50;86.40;;;;;;1877218;75;21273;-68
2021/04/22 05:59:50;;;;;;;22.27;5.15;;;10.50;86.90;;;;;;1875262;76;21174;-67
2021/04/22 06:02:18;;;;;;;20.10;5.10;;;10.50;86.80;;;;;;1874723;75;21120;-68
2021/04/22 06:04:45;;;;;;;16.30;4.75;;;10.60;87.10;;;;;;1881576;75;21092;-68
2021/04/22 06:07:13;;;;;;;19.62;4.37;;;10.60;87.50;;;;;;1874304;76;21743;-66
2021/04/22 06:09:40;;;;;;;19.30;4.40;;;10.60;87.10;;;;;;1881061;75;21186;-67
2021/04/22 06:12:09;;;;;;;21.12;4.47;;;10.70;87.10;;;;;;1874572;76;21073;-68
2021/04/22 06:14:37;;;;;;;20.52;4.75;;;10.70;87.00;;;;;;1879541;74;21146;-67
2021/04/22 06:17:04;;;;;;;24.95;4.83;;;10.80;87.50;;;;;;1874240;76;21042;-68
2021/04/22 06:19:32;;;;;;;34.43;6.05;;;10.80;86.50;;;;;;1878421;76;21108;-68
2021/04/22 06:21:59;;;;;;;22.75;4.58;;;10.80;86.50;;;;;;1880328;76;21167;-68
2021/04/22 06:24:27;;;;;;;20.92;3.85;;;10.80;86.40;;;;;;1883977;74;21223;-68
2021/04/22 06:26:55;;;;;;;17.45;4.05;;;10.80;87.80;;;;;;1880620;76;21514;-68
2021/04/22 06:29:23;;;;;;;14.55;4.10;;;10.90;87.90;;;;;;1880037;76;21124;-69
2021/04/22 06:31:51;;;;;;;24.90;4.22;;;11.00;87.50;;;;;;1880073;75;21617;-67
2021/04/22 06:34:18;;;;;;;21.02;3.95;;;11.00;87.50;;;;;;1870484;74;21148;-68
2021/04/22 06:36:46;;;;;;;22.65;5.12;;;11.10;89.00;;;;;;1878973;75;21554;-67
2021/04/22 06:39:13;;;;;;;13.08;3.70;;;11.20;89.10;;;;;;1867282;76;21159;-67
2021/04/22 06:41:41;;;;;;;17.37;4.05;;;11.20;88.90;;;;;;1873714;75;21100;-67
2021/04/22 06:44:09;;;;;;;22.67;3.92;;;11.20;89.10;;;;;;1872565;74;21097;-67
2021/04/22 06:46:38;;;;;;;17.87;3.87;;;11.30;88.10;;;;;;1871483;76;21184;-67
2021/04/22 06:49:06;;;;;;;25.35;4.40;;;11.30;88.50;;;;;;1871714;75;21174;-66
2021/04/22 06:51:33;;;;;;;24.20;4.35;;;11.30;89.00;;;;;;1879968;75;21161;-66
2021/04/22 06:54:01;;;;;;;17.60;3.72;;;11.30;87.10;;;;;;1872513;74;21064;-67
2021/04/22 06:56:28;;;;;;;23.95;4.25;;;11.20;87.00;;;;;;1880946;75;21126;-66
2021/04/22 06:58:56;;;;;;;17.70;3.60;;;11.30;87.00;;;;;;1877981;75;21195;-66
2021/04/22 07:01:24;;;;;;;19.52;4.10;;;11.30;86.70;;;;;;1880470;76;21100;-66
2021/04/22 07:03:51;;;;;;;14.18;4.05;;;11.30;86.80;;;;;;1870867;75;21197;-67
2021/04/22 07:06:19;;;;;;;15.58;3.85;;;11.40;86.40;;;;;;1878166;75;21865;-67
2021/04/22 07:08:47;;;;;;;19.02;4.55;;;11.40;86.50;;;;;;1878499;75;21945;-67
2021/04/22 07:11:15;;;;;;;17.27;4.25;;;11.40;86.60;;;;;;1869526;75;21189;-67
2021/04/22 07:13:43;;;;;;;17.98;4.08;;;11.50;86.40;;;;;;1877894;74;21722;-67
2021/04/22 07:16:10;;;;;;;19.57;4.40;;;11.50;86.70;;;;;;1879222;75;21555;-67
2021/04/22 07:18:38;;;;;;;26.35;4.33;;;11.40;85.40;;;;;;1874321;75;21160;-67
2021/04/22 07:21:06;;;;;;;17.45;3.87;;;11.50;84.90;;;;;;1880317;75;21209;-67
2021/04/22 07:23:34;;;;;;;19.27;3.95;;;11.50;85.50;;;;;;1878481;74;21164;-65
2021/04/22 07:26:02;;;;;;;17.82;3.80;;;11.50;84.30;;;;;;1885680;74;21141;-64
2021/04/22 07:28:30;;;;;;;16.73;3.45;;;11.50;84.20;;;;;;1882333;74;21145;-66
2021/04/22 07:30:58;;;;;;;16.87;4.08;;;11.50;83.50;;;;;;1886090;74;21071;-65
2021/04/22 07:33:25;;;;;;;14.65;3.33;;;11.50;83.70;;;;;;1876571;74;21130;-65
2021/04/22 07:35:53;;;;;;;20.02;4.00;;;11.60;83.70;;;;;;1859124;76;21134;-66
2021/04/22 07:38:20;;;;;;;14.25;3.65;;;11.60;83.80;;;;;;1859677;76;21093;-65
2021/04/22 07:40:48;;;;;;;17.40;4.17;;;11.60;84.80;;;;;;1858624;76;21096;-65
2021/04/22 07:43:16;;;;;;;18.42;3.67;;;11.60;84.00;;;;;;1856728;76;21485;-66
2021/04/22 07:45:45;;;;;;;18.95;4.45;;;11.50;83.50;;;;;;1856521;76;21164;-68
2021/04/22 07:48:13;;;;;;;21.80;3.90;;;11.60;82.70;;;;;;1857072;76;21133;-66
2021/04/22 07:50:42;;;;;;;17.73;3.67;;;11.50;84.10;;;;;;1860186;76;21119;-67
2021/04/22 07:53:10;;;;;;;23.55;4.78;;;11.50;82.50;;;;;;1859380;74;22310;-65
2021/04/22 07:55:43;;;;;;;18.23;3.72;;;11.60;82.60;;;;;;1864142;76;21136;-67
2021/04/22 07:58:09;;;;;;;;;;;11.60;82.60;;;;;;1861679;76;21224;-65
2021/04/22 08:00:37;;;;;;;14.63;3.58;;;11.70;82.60;;;;;;1859475;76;20137;-63
2021/04/22 08:03:05;;;;;;;16.75;4.75;;;11.80;82.10;;;;;;1859431;75;21168;-64
2021/04/22 08:05:37;;;;;;;14.98;3.85;;;11.80;81.90;;;;;;1861405;76;21104;-67
2021/04/22 08:08:06;;;;;;;18.75;4.40;;;11.60;80.50;;;;;;1863195;76;21109;-66
2021/04/22 08:10:36;;;;;;;15.25;3.90;;;11.60;81.80;;;;;;1858920;76;21035;-68
2021/04/22 08:13:04;;;;;;;16.25;3.27;;;11.70;81.80;;;;;;1862425;76;21035;-65
2021/04/22 08:15:33;;;;;;;18.12;3.58;;;11.70;81.90;;;;;;1860641;76;21646;-66
2021/04/22 08:18:01;;;;;;;16.27;2.75;;;11.80;80.50;;;;;;1859120;76;21103;-65
2021/04/22 08:20:29;;;;;;;17.07;3.90;;;11.80;80.40;;;;;;1856178;76;21050;-64
2021/04/22 08:22:59;;;;;;;17.55;3.75;;;11.90;80.30;;;;;;1860684;76;21146;-65
2021/04/22 08:25:30;;;;;;;16.90;3.30;;;11.90;80.50;;;;;;1859751;76;21059;-64
2021/04/22 08:27:59;;;;;;;16.17;3.87;;;12.10;81.60;;;;;;1862970;76;21582;-65
2021/04/22 08:30:30;;;;;;;22.48;3.77;;;12.20;81.30;;;;;;1859757;76;21043;-65
2021/04/22 08:32:59;;;;;;;21.50;4.37;;;12.30;80.10;;;;;;1846247;76;21107;-65
2021/04/22 08:35:27;;;;;;;24.92;3.62;;;12.40;80.50;;;;;;1860427;76;21011;-66
2021/04/22 08:37:55;;;;;;;19.12;3.58;;;12.40;80.10;;;;;;1860648;76;21137;-64
2021/04/22 08:40:23;;;;;;;13.85;3.08;;;12.30;78.00;;;;;;1858604;76;21107;-68
2021/04/22 08:42:51;;;;;;;21.00;3.77;;;12.40;78.40;;;;;;1860451;76;21136;-67
2021/04/22 08:45:19;;;;;;;23.30;4.28;;;12.30;78.30;;;;;;1859669;74;21035;-66
2021/04/22 08:47:47;;;;;;;13.15;3.20;;;12.30;79.50;;;;;;1860733;75;21591;-66
2021/04/22 08:50:18;;;;;;;17.57;3.47;;;12.20;79.80;;;;;;1858103;75;21098;-66
2021/04/22 08:52:46;;;;;;;17.30;3.33;;;12.30;78.30;;;;;;1858330;76;21102;-65
2021/04/22 08:55:14;;;;;;;14.98;3.42;;;12.30;78.00;;;;;;1858695;76;21087;-64
2021/04/22 08:57:41;;;;;;;20.77;3.67;;;12.30;78.80;;;;;;1858971;76;21157;-64
2021/04/22 09:00:13;;;;;;;12.37;3.42;;;12.30;78.40;;;;;;1857319;75;21118;-65
2021/04/22 09:02:41;;;;;;;12.73;3.45;;;12.30;79.80;;;;;;1861536;76;21026;-66
2021/04/22 09:05:09;;;;;;;20.17;4.05;;;12.30;79.80;;;;;;1856617;75;21171;-66
2021/04/22 09:07:36;;;;;;;19.20;4.35;;;12.40;77.20;;;;;;1856157;76;21576;-66
2021/04/22 09:10:05;;;;;;;18.37;3.75;;;12.40;79.00;;;;;;1856451;76;21113;-66
2021/04/22 09:12:33;;;;;;;24.70;4.05;;;12.50;78.40;;;;;;1854946;76;21082;-67
2021/04/22 09:15:10;;;;;;;18.27;3.92;;;12.60;78.10;;;;;;1856931;76;21154;-67
2021/04/22 09:17:38;;;;;;;13.22;3.67;;;12.60;77.70;;;;;;1856526;76;21040;-65
2021/04/22 09:20:08;;;;;;;19.57;3.80;;;12.70;77.90;;;;;;1860667;76;21095;-67
2021/04/22 09:22:38;;;;;;;20.77;3.75;;;12.90;77.50;;;;;;1863677;76;21169;-67
2021/04/22 09:25:18;;;;;;;15.23;3.22;;;13.00;74.80;;;;;;1859130;76;21212;-67
2021/04/22 09:27:46;;;;;;;14.07;4.47;;;13.00;75.30;;;;;;1857428;76;21108;-65
2021/04/22 09:30:16;;;;;;;22.65;4.25;;;12.90;77.20;;;;;;1859445;76;21054;-68
2021/04/22 09:32:44;;;;;;;21.75;3.83;;;12.90;76.90;;;;;;1858183;76;21135;-64
2021/04/22 09:35:15;;;;;;;12.18;3.27;;;13.00;76.60;;;;;;1860569;76;21464;-67
2021/04/22 09:37:49;;;;;;;20.00;3.37;;;13.00;75.50;;;;;;1857461;76;21079;-67
2021/04/22 09:40:33;;;;;;;14.40;3.17;;;13.00;75.00;;;;;;1863867;76;21196;-67
2021/04/22 09:43:03;;;;;;;16.82;3.65;;;13.00;75.00;;;;;;1857552;76;21085;-68
2021/04/22 09:45:34;;;;;;;15.08;3.35;;;13.00;75.30;;;;;;1858056;74;21102;-67
2021/04/22 09:48:03;;;;;;;14.40;3.67;;;13.00;75.50;;;;;;1860481;76;21619;-67
2021/04/22 09:50:31;;;;;;;13.58;3.17;;;13.10;74.70;;;;;;1856472;76;21724;-65
2021/04/22 09:53:01;;;;;;;14.20;3.50;;;13.10;73.30;;;;;;1860728;76;21118;-67
2021/04/22 09:55:31;;;;;;;13.58;3.62;;;13.30;75.80;;;;;;1859614;74;21595;-65
2021/04/22 09:57:58;;;;;;;17.70;3.85;;;13.40;75.70;;;;;;1859592;76;21099;-66
2021/04/22 10:00:29;;;;;;;16.20;3.40;;;13.60;74.60;;;;;;1857389;76;21220;-66
2021/04/22 10:02:59;;;;;;;13.78;3.37;;;13.70;74.90;;;;;;1860549;75;21389;-64
2021/04/22 10:05:35;;;;;;;11.18;2.98;;;13.70;72.30;;;;;;1855957;76;22146;-63
2021/04/22 10:08:12;;;;;;;13.75;3.02;;;13.70;70.00;;;;;;1860134;76;22149;-63
2021/04/22 10:10:42;;;;;;;13.83;3.02;;;13.70;70.10;;;;;;1861251;76;21183;-65
2021/04/22 10:13:12;;;;;;;15.32;3.80;;;13.80;73.70;;;;;;1856245;74;21171;-67
2021/04/22 10:15:42;;;;;;;17.00;3.90;;;14.00;72.20;;;;;;1858861;76;21176;-63
2021/04/22 10:18:10;;;;;;;15.70;3.77;;;13.90;72.80;;;;;;1856511;74;21161;-65
2021/04/22 10:20:39;;;;;;;10.60;3.33;;;13.80;73.10;;;;;;1860334;76;21073;-65
2021/04/22 10:23:08;;;;;;;12.93;3.55;;;13.70;72.40;;;;;;1859562;74;21112;-66
2021/04/22 10:25:43;;;;;;;14.25;3.33;;;13.60;72.40;;;;;;1859925;76;21109;-67
2021/04/22 10:28:13;;;;;;;13.50;3.87;;;13.60;72.40;;;;;;1861598;76;21074;-67
2021/04/22 10:30:43;;;;;;;13.35;3.50;;;13.60;72.90;;;;;;1862857;76;21055;-67
2021/04/22 10:33:11;;;;;;;16.77;4.35;;;13.50;74.40;;;;;;1861884;76;21091;-67
2021/04/22 10:35:42;;;;;;;18.25;4.28;;;13.40;75.40;;;;;;1862484;76;21152;-66
2021/04/22 10:38:11;;;;;;;15.25;4.40;;;13.40;76.90;;;;;;1860083;76;21011;-66
2021/04/22 10:40:42;;;;;;;21.40;4.40;;;13.50;77.10;;;;;;1856503;76;21167;-65
2021/04/22 10:43:11;;;;;;;20.72;4.35;;;13.50;77.60;;;;;;1861057;76;21624;-66
2021/04/22 10:45:39;;;;;;;15.43;4.40;;;13.50;76.20;;;;;;1858862;74;21654;-66
2021/04/22 10:48:06;;;;;;;18.35;3.58;;;13.50;77.60;;;;;;1858087;76;21067;-64
2021/04/22 10:50:37;;;;;;;13.83;4.15;;;13.60;77.00;;;;;;1857674;76;21175;-65
2021/04/22 10:53:08;;;;;;;14.07;4.17;;;13.60;75.90;;;;;;1861939;75;21217;-64
2021/04/22 10:55:37;;;;;;;14.80;4.03;;;13.60;77.00;;;;;;1861730;76;21171;-67
2021/04/22 10:58:23;;;;;;;9.00;3.45;;;13.60;75.60;;;;;;1862650;76;21133;-65
2021/04/22 11:00:56;;;;;;;13.90;3.95;;;13.70;75.60;;;;;;1857356;76;21093;-64
2021/04/22 11:03:37;;;;;;;15.83;3.95;;;13.70;74.00;;;;;;1860959;76;21137;-65
2021/04/22 11:06:07;;;;;;;17.32;4.05;;;13.70;75.30;;;;;;1860486;76;21235;-65
2021/04/22 11:08:38;;;;;;;11.00;3.60;;;13.60;75.20;;;;;;1859207;76;21098;-65
2021/04/22 11:11:27;;;;;;;16.02;4.33;;;13.60;76.50;;;;;;1859114;76;21196;-65
2021/04/22 11:14:16;;;;;;;14.33;4.03;;;13.60;75.20;;;;;;1859109;76;21157;-64
2021/04/22 11:16:52;;;;;;;16.35;3.85;;;13.50;76.50;;;;;;1858418;76;21200;-65
2021/04/22 11:19:24;;;;;;;15.23;3.62;;;13.50;77.90;;;;;;1857219;76;21639;-64
2021/04/22 11:21:55;;;;;;;;;;;13.50;78.00;;;;;;1857544;76;21571;-64
2021/04/22 11:24:37;;;;;;;17.12;4.12;;;13.50;76.60;;;;;;1857454;76;20247;-65
2021/04/22 11:27:10;;;;;;;18.45;4.67;;;13.40;76.90;;;;;;1855224;76;21173;-65
2021/04/22 11:29:46;;;;;;;15.32;3.98;;;13.50;78.20;;;;;;1858132;76;22341;-65
2021/04/22 11:32:19;;;;;;;14.55;4.03;;;13.50;77.50;;;;;;1860239;76;21124;-66
2021/04/22 11:34:48;;;;;;;14.93;3.98;;;13.50;77.80;;;;;;1861563;74;21154;-66
2021/04/22 11:37:24;;;;;;;17.05;4.10;;;13.50;78.10;;;;;;1859633;76;21066;-66
2021/04/22 11:39:53;;;;;;;12.28;3.55;;;13.50;78.20;;;;;;1860806;76;21212;-65
2021/04/22 11:42:21;;;;;;;15.83;4.03;;;13.50;78.10;;;;;;1857090;76;21170;-66
2021/04/22 11:44:51;;;;;;;15.18;4.05;;;13.60;77.90;;;;;;1859549;76;21132;-65
2021/04/22 11:47:24;;;;;;;12.43;3.35;;;13.60;77.60;;;;;;1859930;76;21556;-66
2021/04/22 11:50:15;;;;;;;17.40;4.37;;;13.60;77.00;;;;;;1857110;76;21207;-65
2021/04/22 11:52:49;;;;;;;15.95;4.05;;;13.60;78.10;;;;;;1862373;76;21128;-66
2021/04/22 11:55:28;;;;;;;12.18;3.80;;;13.60;78.00;;;;;;1856876;76;21083;-66
2021/04/22 11:58:04;;;;;;;18.25;3.80;;;13.70;77.40;;;;;;1860243;76;21095;-67
2021/04/22 12:00:34;;;;;;;13.98;3.98;;;13.70;77.90;;;;;;1858241;76;21239;-66
2021/04/22 12:03:02;;;;;;;11.90;3.02;;;13.70;76.90;;;;;;1856440;76;21063;-65
2021/04/22 12:05:30;;;;;;;9.40;3.42;;;13.70;76.70;;;;;;1858988;76;21083;-66
2021/04/22 12:07:59;;;;;;;15.18;4.08;;;13.70;77.40;;;;;;1862662;74;21047;-67
2021/04/22 12:10:28;;;;;;;15.75;3.85;;;13.70;78.50;;;;;;1856510;76;21126;-66
2021/04/22 12:13:11;;;;;;;7.83;3.00;;;13.70;78.80;;;;;;1858450;75;21059;-66
2021/04/22 12:15:39;;;;;;;;;;;13.90;77.70;;;;;;1860289;76;21189;-65
2021/04/22 12:18:08;;;;;;;10.00;3.20;;;14.00;76.30;;;;;;1860772;76;20166;-66
2021/04/22 12:20:38;;;;;;;11.88;2.95;;;14.00;74.00;;;;;;1862637;76;21104;-67
2021/04/22 12:23:05;;;;;;;10.48;3.08;;;14.00;73.90;;;;;;1856076;76;21725;-67
2021/04/22 12:25:33;;;;;;;13.75;3.02;;;14.10;76.20;;;;;;1858649;76;21321;-65
2021/04/22 12:28:05;;;;;;;13.20;3.27;;;14.00;74.10;;;;;;1860804;76;21133;-66
2021/04/22 12:30:45;;;;;;;12.98;3.77;;;14.10;74.20;;;;;;1856443;76;21124;-65
2021/04/22 12:33:13;;;;;;;13.13;3.35;;;14.10;73.30;;;;;;1857807;76;21157;-65
2021/04/22 12:36:01;;;;;;;15.50;2.77;;;14.10;74.10;;;;;;1859501;76;21110;-67
2021/04/22 12:38:28;;;;;;;12.20;3.05;;;14.10;73.30;;;;;;1859819;76;21612;-66
2021/04/22 12:41:01;;;;;;;15.03;3.55;;;14.20;74.30;;;;;;1857525;76;21046;-65
2021/04/22 12:43:31;;;;;;;13.85;3.60;;;14.20;73.00;;;;;;1857606;76;21224;-66
2021/04/22 12:46:10;;;;;;;8.43;3.02;;;14.20;73.80;;;;;;1858119;76;21650;-65
2021/04/22 12:48:39;;;;;;;14.45;3.35;;;14.20;74.10;;;;;;1859429;76;22132;-64